בודפשט, הונגריה

06:10 AM CEST , אפריל 25, 2015 (GMT +0200)
Budapest | | Change Station
CLOSE
Current Station
תחנות מטאורולוגיות אישיות
Location: Budapest, BUDAPEST
Elevation: 417 ft
Nearby Weather Stations

Elev 417 ft 47.42 °N, 19.21 °E | Updated 14 seconds ago

Clear
בהיר
43.9 ° F
Feels Like 44 ° F
צפ
0.0
רוח משתנה רוח from דר-מז
Gusts 0.0 מייל/שעה

היום
High -- | Low -- ° F
--% Chance of Precip.
אתמול
High -- | Low -- ° F
Precip. -- אינץ
5:37 AM 7:45 PM
לקראת מילוא, 42% visible
לחץ 30.01 אינץ
ראות -9999.0 מיילים
עננים
רוח צוננת 44 ° F
טמפ עיבוי 41 ° F
לחות 90%
גשם 0.00 אינץ
עומק השלג Not available.
UV Not available.
Pollen Not available.
איכות האוויר Not available.
Flu Activity Not available.
METAR LHBP 250400Z 00000KT CAVOK 05/03 Q1016 NOSIG

More Conditions Fewer Conditions

לחץ 30.01 אינץ
ראות -9999.0 מיילים
עננים
רוח צוננת 44 ° F
טמפ עיבוי 41 ° F
לחות 90%
גשם 0.00 אינץ
עומק השלג Not available.
UV Not available.
Pollen Not available.
איכות האוויר Not available.
Flu Activity Not available.
METAR LHBP 250400Z 00000KT CAVOK 05/03 Q1016 NOSIG

More Conditions Fewer Conditions

10-Day Weather Forecast

Almanac

אסטרונומיה

Apr. 25, 2015 Rise Set
Actual Time
Civil Twilight
Nautical Twilight
Astronomical Twilight
ירח
Length Of Visible Light
אורך היום
Tomorrow will be .
, % of the Moon is Illuminated

Today's Extremes

Country Highs Country Lows

Community

WunderPhotos

Upload Photos

1,816,601 photos uploaded!

WunderBlogs® & News

Nearby

איכות האוויר

  איכות האוויר אינדקס איכות האוויר חומר מזהם
Not available.

עומק שלג

Station Depth Elevation

Earthquake Activity

עיר Distance Mag. Time & Date
Minimum magnitude displayed is 2.5.

Coastal Water Temperatures

מקום טמפרטורה

Stations

Nearby Weather Stations

Station Location טמפ רוח צוננת טמפ עיבוי לחות רוח Precip. Elev מעודכן Type